Time;durP1;ratioP1;P1;durP2;ratioP2;P2;SDS_P1;SDS_P2;PMS_P1;PMS_P2;Temp;Humidity;BMP_temperature;BMP_pressure;BME280_temperature;BME280_humidity;BME280_pressure;Samples;Min_cycle;Max_cycle;Signal;HPM_P1;HPM_P2
2021/05/03 00:27:40;;;;;;;3.90;2.50;;;;;;;;;;4342290;28;20072;-63
2021/05/03 00:30:17;;;;;;;5.03;2.30;;;;;;;;;;4149247;34;20203;-65
2021/05/03 00:32:50;;;;;;;2.85;2.28;;;;;;;;;;4139265;34;20111;-63
2021/05/03 00:35:26;;;;;;;4.68;2.20;;;;;;;;;;4139953;34;20211;-63
2021/05/03 00:37:57;;;;;;;4.90;2.50;;;;;;;;;;4151566;34;20200;-64
2021/05/03 00:40:25;;;;;;;6.28;2.60;;;;;;;;;;4151363;34;20135;-66
2021/05/03 00:42:52;;;;;;;3.50;1.98;;;;;;;;;;4139256;34;20157;-64
2021/05/03 00:45:20;;;;;;;4.85;2.30;;;;;;;;;;4151436;34;20121;-66
2021/05/03 00:47:47;;;;;;;4.25;2.20;;;;;;;;;;4139077;34;20099;-64
2021/05/03 00:50:15;;;;;;;4.28;2.37;;;;;;;;;;4127958;34;20138;-64
2021/05/03 00:52:42;;;;;;;3.25;2.12;;;;;;;;;;4138980;34;20084;-66
2021/05/03 00:55:09;;;;;;;4.55;2.42;;;;;;;;;;4151515;34;20117;-64
2021/05/03 00:57:35;;;;;;;5.45;2.22;;;;;;;;;;4151338;34;20114;-65
2021/05/03 01:00:01;;;;;;;4.28;2.40;;;;;;;;;;4138849;34;20511;-66
2021/05/03 01:02:27;;;;;;;4.30;2.25;;;;;;;;;;4138946;34;20091;-66
2021/05/03 01:04:53;;;;;;;2.72;2.45;;;;;;;;;;4151314;34;20412;-64
2021/05/03 01:07:20;;;;;;;5.45;2.65;;;;;;;;;;4151049;34;20110;-66
2021/05/03 01:09:46;;;;;;;6.50;2.50;;;;;;;;;;4138632;34;20107;-63
2021/05/03 01:12:12;;;;;;;5.47;2.70;;;;;;;;;;4138888;34;20142;-66
2021/05/03 01:14:38;;;;;;;5.78;2.67;;;;;;;;;;4138546;34;20118;-64
2021/05/03 01:17:04;;;;;;;7.78;3.05;;;;;;;;;;4151253;34;20112;-66
2021/05/03 01:19:31;;;;;;;3.37;2.80;;;;;;;;;;4151133;34;20137;-63
2021/05/03 01:21:57;;;;;;;5.22;3.03;;;;;;;;;;4151052;34;20114;-63
2021/05/03 01:24:23;;;;;;;5.62;3.28;;;;;;;;;;4151261;34;20620;-64
2021/05/03 01:26:49;;;;;;;3.35;2.90;;;;;;;;;;4150781;34;20107;-65
2021/05/03 01:29:15;;;;;;;3.45;2.92;;;;;;;;;;4149889;34;20797;-66
2021/05/03 01:31:48;;;;;;;5.57;3.15;;;;;;;;;;4151041;34;20511;-64
2021/05/03 01:34:14;;;;;;;4.55;3.00;;;;;;;;;;4138999;34;20535;-66
2021/05/03 01:36:41;;;;;;;4.75;3.00;;;;;;;;;;4138449;34;20107;-63
2021/05/03 01:39:08;;;;;;;7.32;3.55;;;;;;;;;;4151141;34;20194;-64
2021/05/03 01:41:35;;;;;;;4.30;3.03;;;;;;;;;;4151060;34;20131;-63
2021/05/03 01:44:01;;;;;;;8.57;3.30;;;;;;;;;;4150814;34;20137;-64
2021/05/03 01:46:28;;;;;;;6.85;3.28;;;;;;;;;;4151202;34;20187;-66
2021/05/03 01:48:55;;;;;;;4.37;3.10;;;;;;;;;;4151077;34;20206;-64
2021/05/03 01:51:21;;;;;;;5.18;2.90;;;;;;;;;;4150769;34;20114;-64
2021/05/03 01:53:47;;;;;;;4.37;3.25;;;;;;;;;;4138308;34;20122;-64
2021/05/03 01:56:14;;;;;;;5.53;3.10;;;;;;;;;;4137894;34;20610;-66
2021/05/03 01:58:40;;;;;;;6.15;3.22;;;;;;;;;;4138253;34;20204;-63
2021/05/03 02:01:06;;;;;;;5.32;2.92;;;;;;;;;;4150957;34;20620;-64
2021/05/03 02:03:32;;;;;;;5.12;3.15;;;;;;;;;;4150996;34;20250;-64
2021/05/03 02:05:58;;;;;;;4.22;2.90;;;;;;;;;;4150538;34;20135;-66
2021/05/03 02:08:25;;;;;;;4.30;3.62;;;;;;;;;;4150980;34;20552;-63
2021/05/03 02:10:51;;;;;;;6.32;2.75;;;;;;;;;;4149468;34;20103;-64
2021/05/03 02:13:18;;;;;;;7.97;3.17;;;;;;;;;;4138430;34;20123;-66
2021/05/03 02:15:47;;;;;;;6.78;3.20;;;;;;;;;;4150762;34;20662;-64
2021/05/03 02:18:13;;;;;;;8.38;3.15;;;;;;;;;;4150750;34;20519;-64
2021/05/03 02:20:39;;;;;;;7.10;3.58;;;;;;;;;;4150756;34;20138;-66
2021/05/03 02:23:05;;;;;;;10.10;3.47;;;;;;;;;;4149280;34;20133;-63
2021/05/03 02:25:32;;;;;;;5.65;3.30;;;;;;;;;;4150392;34;20522;-63
2021/05/03 02:27:59;;;;;;;6.70;3.22;;;;;;;;;;4150584;34;20116;-64
2021/05/03 02:30:25;;;;;;;20.88;4.47;;;;;;;;;;4137951;34;20103;-66
2021/05/03 02:32:52;;;;;;;22.98;4.32;;;;;;;;;;4137895;34;20194;-63
2021/05/03 02:35:19;;;;;;;7.40;3.60;;;;;;;;;;4150473;34;20133;-64
2021/05/03 02:37:49;;;;;;;11.07;3.80;;;;;;;;;;4138269;34;20536;-65
2021/05/03 02:40:15;;;;;;;7.30;3.50;;;;;;;;;;4138419;34;20523;-66
2021/05/03 02:42:46;;;;;;;9.77;3.53;;;;;;;;;;4137788;34;20130;-64
2021/05/03 02:45:12;;;;;;;7.87;3.50;;;;;;;;;;4138374;34;20463;-65
2021/05/03 02:47:38;;;;;;;8.65;3.60;;;;;;;;;;4150598;34;20518;-63
2021/05/03 02:50:05;;;;;;;7.85;4.90;;;;;;;;;;4150178;34;20130;-65
2021/05/03 02:52:31;;;;;;;13.02;4.68;;;;;;;;;;4150486;34;20098;-66
2021/05/03 02:54:57;;;;;;;14.38;3.90;;;;;;;;;;4137935;34;20119;-64
2021/05/03 02:57:23;;;;;;;6.68;3.75;;;;;;;;;;4150660;34;20466;-66
2021/05/03 02:59:49;;;;;;;5.03;3.58;;;;;;;;;;4150330;34;20223;-63
2021/05/03 03:02:15;;;;;;;9.35;3.47;;;;;;;;;;4149974;34;20564;-64
2021/05/03 03:04:42;;;;;;;10.23;3.45;;;;;;;;;;4150371;34;20126;-63
2021/05/03 03:07:08;;;;;;;9.63;3.60;;;;;;;;;;4150515;34;20204;-64
2021/05/03 03:09:34;;;;;;;10.38;3.92;;;;;;;;;;4139103;34;20110;-64
2021/05/03 03:12:00;;;;;;;10.07;4.50;;;;;;;;;;4151932;34;20126;-63
2021/05/03 03:14:27;;;;;;;22.95;4.57;;;;;;;;;;4139651;34;20103;-63
2021/05/03 03:16:53;;;;;;;16.12;3.80;;;;;;;;;;4152331;34;20510;-63
2021/05/03 03:19:19;;;;;;;14.23;3.60;;;;;;;;;;4152067;34;20141;-66
2021/05/03 03:21:46;;;;;;;12.50;3.50;;;;;;;;;;4139834;34;20103;-64
2021/05/03 03:24:12;;;;;;;10.73;4.55;;;;;;;;;;4139476;34;20576;-65
2021/05/03 03:26:38;;;;;;;11.07;4.07;;;;;;;;;;4151919;34;20135;-64
2021/05/03 03:29:05;;;;;;;10.70;4.37;;;;;;;;;;4150839;34;20123;-62
2021/05/03 03:31:31;;;;;;;8.45;4.00;;;;;;;;;;4151998;34;20474;-63
2021/05/03 03:33:57;;;;;;;7.68;4.35;;;;;;;;;;4152111;34;20210;-64
2021/05/03 03:36:23;;;;;;;7.18;4.15;;;;;;;;;;4152163;34;20123;-66
2021/05/03 03:38:49;;;;;;;7.85;3.65;;;;;;;;;;4152196;34;20126;-64
2021/05/03 03:41:15;;;;;;;13.52;3.97;;;;;;;;;;4151908;34;20133;-63
2021/05/03 03:43:41;;;;;;;12.68;4.82;;;;;;;;;;4152039;34;20137;-63
2021/05/03 03:46:07;;;;;;;10.80;3.65;;;;;;;;;;4151825;34;20114;-63
2021/05/03 03:48:33;;;;;;;8.70;3.50;;;;;;;;;;4152096;34;20127;-63
2021/05/03 03:50:59;;;;;;;11.98;3.67;;;;;;;;;;4151668;34;20095;-66
2021/05/03 03:53:25;;;;;;;29.73;4.55;;;;;;;;;;4150496;34;20479;-63
2021/05/03 03:55:51;;;;;;;7.37;2.85;;;;;;;;;;4151612;34;20537;-64
2021/05/03 03:58:17;;;;;;;6.97;3.22;;;;;;;;;;4139563;34;20130;-66
2021/05/03 04:00:43;;;;;;;5.35;3.08;;;;;;;;;;4152058;34;20541;-64
2021/05/03 04:03:10;;;;;;;6.07;3.60;;;;;;;;;;4151608;34;20123;-63
2021/05/03 04:06:08;;;;;;;11.80;3.55;;;;;;;;;;4139252;34;20619;-66
2021/05/03 04:08:53;;;;;;;10.95;3.42;;;;;;;;;;4142661;34;20198;-64
2021/05/03 04:24:43;;;;;;;11.80;2.75;;;;;;;;;;4151749;34;20458;-66
2021/05/03 04:27:09;;;;;;;5.85;2.62;;;;;;;;;;4151636;34;20550;-64
2021/05/03 04:29:35;;;;;;;7.43;2.58;;;;;;;;;;4151679;34;20131;-63
2021/05/03 04:32:01;;;;;;;3.58;2.70;;;;;;;;;;4151295;34;20107;-64
2021/05/03 04:34:27;;;;;;;5.80;2.55;;;;;;;;;;4151681;34;20131;-64
2021/05/03 04:36:54;;;;;;;4.43;2.67;;;;;;;;;;4151530;34;20114;-66
2021/05/03 04:39:21;;;;;;;5.30;2.53;;;;;;;;;;4138961;34;20619;-64
2021/05/03 04:41:47;;;;;;;5.72;3.20;;;;;;;;;;4139058;34;20552;-64
2021/05/03 04:44:13;;;;;;;4.75;2.60;;;;;;;;;;4151546;34;20142;-66
2021/05/03 04:46:39;;;;;;;5.20;3.08;;;;;;;;;;4138799;34;20137;-64
2021/05/03 04:49:06;;;;;;;4.47;2.78;;;;;;;;;;4151528;34;20130;-64
2021/05/03 04:51:32;;;;;;;8.63;2.72;;;;;;;;;;4138684;34;20115;-64
2021/05/03 04:53:58;;;;;;;6.40;3.05;;;;;;;;;;4138925;34;20139;-63
2021/05/03 04:56:24;;;;;;;8.20;2.80;;;;;;;;;;4138787;34;20121;-63
2021/05/03 04:58:50;;;;;;;6.35;2.78;;;;;;;;;;4138706;34;20118;-63
2021/05/03 05:01:16;;;;;;;12.27;3.53;;;;;;;;;;4138945;34;20111;-64
2021/05/03 05:03:42;;;;;;;10.75;3.67;;;;;;;;;;4149990;34;20118;-64
2021/05/03 05:06:09;;;;;;;9.15;2.90;;;;;;;;;;4138897;34;20211;-64
2021/05/03 05:08:37;;;;;;;4.18;2.78;;;;;;;;;;4138848;34;20541;-64
2021/05/03 05:11:03;;;;;;;8.02;2.95;;;;;;;;;;4138798;34;20562;-64
2021/05/03 05:13:29;;;;;;;3.15;2.50;;;;;;;;;;4151358;34;20154;-66
2021/05/03 05:15:58;;;;;;;6.25;3.03;;;;;;;;;;4138835;34;20126;-63
2021/05/03 05:18:24;;;;;;;5.85;2.45;;;;;;;;;;4139216;34;20556;-64
2021/05/03 05:20:51;;;;;;;5.18;3.12;;;;;;;;;;4138450;34;20099;-66
2021/05/03 05:23:18;;;;;;;5.47;3.10;;;;;;;;;;4138710;34;20121;-63
2021/05/03 05:25:44;;;;;;;13.85;2.90;;;;;;;;;;4127527;34;20230;-64
2021/05/03 05:28:10;;;;;;;3.37;2.75;;;;;;;;;;4138623;34;20147;-64
2021/05/03 05:30:37;;;;;;;5.25;2.78;;;;;;;;;;4150688;34;20232;-63
2021/05/03 05:33:03;;;;;;;4.85;2.85;;;;;;;;;;4138186;34;20467;-64
2021/05/03 05:35:29;;;;;;;2.78;2.25;;;;;;;;;;4150961;34;20131;-62
2021/05/03 05:37:56;;;;;;;5.43;2.60;;;;;;;;;;4150942;34;20221;-65
2021/05/03 05:40:23;;;;;;;6.05;2.10;;;;;;;;;;4151232;34;20451;-65
2021/05/03 05:42:52;;;;;;;3.40;2.53;;;;;;;;;;4138610;34;20111;-65
2021/05/03 05:45:18;;;;;;;5.90;3.80;;;;;;;;;;4138364;34;20170;-64
2021/05/03 05:47:45;;;;;;;8.40;2.92;;;;;;;;;;4151097;34;20115;-64
2021/05/03 05:50:11;;;;;;;9.73;2.45;;;;;;;;;;4138455;34;20131;-66
2021/05/03 05:52:38;;;;;;;12.68;3.08;;;;;;;;;;4150869;34;20099;-63
2021/05/03 05:55:04;;;;;;;2.72;2.22;;;;;;;;;;4150955;34;20126;-64
2021/05/03 05:57:31;;;;;;;9.05;2.47;;;;;;;;;;4150799;34;20186;-66
2021/05/03 05:59:57;;;;;;;4.28;2.33;;;;;;;;;;4150928;34;20091;-64
2021/05/03 06:02:24;;;;;;;8.38;2.22;;;;;;;;;;4138425;34;20161;-64
2021/05/03 06:04:50;;;;;;;7.32;2.75;;;;;;;;;;4138155;34;20307;-65
2021/05/03 06:07:16;;;;;;;5.20;2.65;;;;;;;;;;4150753;34;20115;-63
2021/05/03 06:09:43;;;;;;;12.18;3.10;;;;;;;;;;4150671;34;20123;-64
2021/05/03 06:12:09;;;;;;;4.53;2.70;;;;;;;;;;4150942;34;20237;-66
2021/05/03 06:14:35;;;;;;;7.78;2.80;;;;;;;;;;4150690;34;20125;-64
2021/05/03 06:17:03;;;;;;;3.47;2.50;;;;;;;;;;4150506;34;20135;-64
2021/05/03 06:19:31;;;;;;;4.10;3.03;;;;;;;;;;4150800;34;20122;-66
2021/05/03 06:22:04;;;;;;;3.65;2.47;;;;;;;;;;4150808;34;20194;-64
2021/05/03 06:24:32;;;;;;;4.07;2.70;;;;;;;;;;4150823;34;20122;-64
2021/05/03 06:27:02;;;;;;;3.33;2.35;;;;;;;;;;4137828;34;20475;-63
2021/05/03 06:29:32;;;;;;;2.95;2.28;;;;;;;;;;4150822;34;20169;-64
2021/05/03 06:32:04;;;;;;;12.07;2.95;;;;;;;;;;4150667;34;20115;-64
2021/05/03 06:34:32;;;;;;;5.65;2.80;;;;;;;;;;4150680;34;20100;-63
2021/05/03 06:36:58;;;;;;;12.50;3.10;;;;;;;;;;4150319;34;20122;-64
2021/05/03 06:39:26;;;;;;;6.07;2.70;;;;;;;;;;4150665;34;20087;-64
2021/05/03 06:41:56;;;;;;;5.70;3.50;;;;;;;;;;4150462;34;20130;-64
2021/05/03 06:44:24;;;;;;;3.17;2.35;;;;;;;;;;4149030;34;20115;-64
2021/05/03 06:46:51;;;;;;;5.75;2.90;;;;;;;;;;4150469;34;20162;-66
2021/05/03 06:49:25;;;;;;;25.58;3.72;;;;;;;;;;4150755;34;20623;-64
2021/05/03 06:51:58;;;;;;;10.32;2.35;;;;;;;;;;4150502;34;20470;-63
2021/05/03 06:54:36;;;;;;;2.75;2.40;;;;;;;;;;4150341;34;20103;-64
2021/05/03 06:57:06;;;;;;;5.72;2.30;;;;;;;;;;4138290;34;20111;-64
2021/05/03 06:59:34;;;;;;;6.47;2.53;;;;;;;;;;4150593;34;20108;-64
2021/05/03 07:02:05;;;;;;;3.40;2.87;;;;;;;;;;4150414;34;20228;-66
2021/05/03 07:04:34;;;;;;;4.97;2.80;;;;;;;;;;4150340;34;20110;-63
2021/05/03 07:07:02;;;;;;;5.97;2.42;;;;;;;;;;4138134;34;20119;-64
2021/05/03 07:09:31;;;;;;;5.12;2.97;;;;;;;;;;4148757;34;20658;-64
2021/05/03 07:12:01;;;;;;;7.37;2.67;;;;;;;;;;4137970;34;20534;-66
2021/05/03 07:14:47;;;;;;;6.15;2.45;;;;;;;;;;4150301;34;20105;-63
2021/05/03 07:17:14;;;;;;;5.87;2.53;;;;;;;;;;4137777;34;20103;-65
2021/05/03 07:19:41;;;;;;;3.75;2.28;;;;;;;;;;4149111;34;20095;-65
2021/05/03 07:22:08;;;;;;;4.97;2.28;;;;;;;;;;4137248;34;20187;-65
2021/05/03 07:24:36;;;;;;;6.35;2.83;;;;;;;;;;4137318;34;20121;-63
2021/05/03 07:27:05;;;;;;;6.57;2.85;;;;;;;;;;4150030;34;20123;-65
2021/05/03 07:29:36;;;;;;;15.82;2.80;;;;;;;;;;4149957;34;20466;-63
2021/05/03 07:32:06;;;;;;;3.92;2.55;;;;;;;;;;4149985;34;20130;-62
2021/05/03 07:34:32;;;;;;;3.37;2.62;;;;;;;;;;4149793;34;20203;-66
2021/05/03 07:37:00;;;;;;;4.68;2.78;;;;;;;;;;4137398;34;20141;-63
2021/05/03 07:39:29;;;;;;;15.43;3.30;;;;;;;;;;4137918;34;20115;-66
2021/05/03 07:41:57;;;;;;;4.75;2.12;;;;;;;;;;4149936;34;20517;-66
2021/05/03 07:44:25;;;;;;;7.05;3.17;;;;;;;;;;4126377;34;20221;-65
2021/05/03 07:46:51;;;;;;;5.53;2.67;;;;;;;;;;4149587;34;20542;-63
2021/05/03 07:49:17;;;;;;;4.10;1.73;;;;;;;;;;4149709;34;20099;-65
2021/05/03 07:51:43;;;;;;;8.57;2.97;;;;;;;;;;4149963;34;20462;-64
2021/05/03 07:54:09;;;;;;;4.95;3.28;;;;;;;;;;4149663;34;20517;-63
2021/05/03 07:56:36;;;;;;;4.97;2.20;;;;;;;;;;4151829;34;20127;-63
2021/05/03 07:59:04;;;;;;;5.72;2.67;;;;;;;;;;4150606;34;20200;-64
2021/05/03 08:01:33;;;;;;;18.83;3.00;;;;;;;;;;4151945;34;20131;-63
2021/05/03 08:03:59;;;;;;;8.13;2.45;;;;;;;;;;4151718;34;20122;-64
2021/05/03 08:06:26;;;;;;;15.52;3.30;;;;;;;;;;4151584;34;20219;-63
2021/05/03 08:08:59;;;;;;;3.87;2.70;;;;;;;;;;4139206;34;20118;-64
2021/05/03 08:11:26;;;;;;;10.68;2.62;;;;;;;;;;4139514;34;20568;-64
2021/05/03 08:13:52;;;;;;;7.30;1.98;;;;;;;;;;4151664;34;20130;-63
2021/05/03 08:16:19;;;;;;;6.97;2.85;;;;;;;;;;4139140;34;20206;-66
2021/05/03 08:18:45;;;;;;;4.82;2.90;;;;;;;;;;4151607;34;20101;-66
2021/05/03 08:21:11;;;;;;;14.32;4.30;;;;;;;;;;4138969;34;20126;-63
2021/05/03 08:23:39;;;;;;;8.27;3.70;;;;;;;;;;4151407;34;20126;-63
2021/05/03 08:26:05;;;;;;;8.27;3.15;;;;;;;;;;4139176;34;20091;-64
2021/05/03 08:28:31;;;;;;;6.00;3.62;;;;;;;;;;4151586;34;20458;-65
2021/05/03 08:30:57;;;;;;;11.20;3.30;;;;;;;;;;4151351;34;20312;-64
2021/05/03 08:33:23;;;;;;;4.75;2.17;;;;;;;;;;4151422;34;20216;-66
2021/05/03 08:35:49;;;;;;;19.77;3.85;;;;;;;;;;4139093;34;20208;-63
2021/05/03 08:38:17;;;;;;;2.92;2.17;;;;;;;;;;4138981;34;20147;-64
2021/05/03 08:40:43;;;;;;;6.10;4.05;;;;;;;;;;4139108;34;20123;-64
2021/05/03 08:43:09;;;;;;;6.47;2.47;;;;;;;;;;4151322;34;20099;-63
2021/05/03 08:45:36;;;;;;;5.80;2.97;;;;;;;;;;4151370;34;20217;-63
2021/05/03 08:49:00;;;;;;;11.48;2.85;;;;;;;;;;4139162;34;20114;-64
2021/05/03 08:54:13;;;;;;;9.20;2.45;;;;;;;;;;4151541;34;20095;-64
2021/05/03 08:56:38;;;;;;;7.05;4.20;;;;;;;;;;4151688;34;20119;-65
2021/05/03 08:59:04;;;;;;;9.55;2.92;;;;;;;;;;4151142;34;20123;-63
2021/05/03 09:01:31;;;;;;;7.28;2.22;;;;;;;;;;4138836;34;20576;-64
2021/05/03 09:03:57;;;;;;;9.93;4.87;;;;;;;;;;4149782;34;20550;-64
2021/05/03 09:06:22;;;;;;;7.95;3.35;;;;;;;;;;4138694;34;20155;-63
2021/05/03 09:09:03;;;;;;;9.27;3.03;;;;;;;;;;4151257;34;20142;-64
2021/05/03 09:11:29;;;;;;;8.57;2.72;;;;;;;;;;4151119;34;20106;-63
2021/05/03 09:14:06;;;;;;;5.87;3.05;;;;;;;;;;4138669;34;20142;-64
2021/05/03 09:16:32;;;;;;;8.35;3.62;;;;;;;;;;4138808;34;20476;-64
2021/05/03 09:18:59;;;;;;;14.15;3.25;;;;;;;;;;4151060;34;20151;-64
2021/05/03 09:21:30;;;;;;;3.17;2.60;;;;;;;;;;4151034;34;20106;-64
2021/05/03 09:24:15;;;;;;;15.52;3.83;;;;;;;;;;4139183;34;20531;-64
2021/05/03 09:26:47;;;;;;;11.10;3.90;;;;;;;;;;4150779;34;20104;-63
2021/05/03 09:29:35;;;;;;;5.93;3.50;;;;;;;;;;4151187;34;20199;-63
2021/05/03 09:32:12;;;;;;;7.72;2.97;;;;;;;;;;4138509;34;20111;-65
2021/05/03 09:34:49;;;;;;;11.43;3.55;;;;;;;;;;4151183;34;20099;-65
2021/05/03 09:37:29;;;;;;;6.65;3.12;;;;;;;;;;4150896;34;20537;-65
2021/05/03 09:40:12;;;;;;;11.52;2.97;;;;;;;;;;4151191;34;20206;-65
2021/05/03 09:42:49;;;;;;;7.97;3.30;;;;;;;;;;4150922;34;20099;-65
2021/05/03 09:45:30;;;;;;;4.57;2.12;;;;;;;;;;4150881;34;20141;-63
2021/05/03 09:47:57;;;;;;;22.02;4.82;;;;;;;;;;4151058;34;20194;-63
2021/05/03 09:50:24;;;;;;;8.77;3.20;;;;;;;;;;4150761;34;20527;-62
2021/05/03 09:53:13;;;;;;;13.32;2.83;;;;;;;;;;4138306;34;20486;-63
2021/05/03 09:55:49;;;;;;;18.52;6.05;;;;;;;;;;4138875;34;20111;-64
2021/05/03 09:58:17;;;;;;;9.57;4.12;;;;;;;;;;4150848;34;20106;-62
2021/05/03 10:00:51;;;;;;;6.97;2.92;;;;;;;;;;4150691;34;20175;-63
2021/05/03 10:03:46;;;;;;;3.17;2.50;;;;;;;;;;4150709;34;20126;-65
2021/05/03 10:06:16;;;;;;;15.75;3.33;;;;;;;;;;4139327;34;20112;-64
2021/05/03 10:08:46;;;;;;;9.70;3.35;;;;;;;;;;4150734;34;20087;-63
2021/05/03 10:11:15;;;;;;;15.40;3.30;;;;;;;;;;4150584;34;20126;-64
2021/05/03 10:13:43;;;;;;;15.88;2.75;;;;;;;;;;4138764;34;20135;-64
2021/05/03 10:16:08;;;;;;;12.93;3.40;;;;;;;;;;4149238;34;20198;-65
2021/05/03 10:18:39;;;;;;;9.68;3.30;;;;;;;;;;4137690;34;20600;-63
2021/05/03 10:21:09;;;;;;;8.93;3.50;;;;;;;;;;4150484;34;20114;-64
2021/05/03 10:23:37;;;;;;;4.07;2.78;;;;;;;;;;4150489;34;20593;-63
2021/05/03 10:26:03;;;;;;;8.73;4.25;;;;;;;;;;4150425;34;20119;-63
2021/05/03 10:28:29;;;;;;;9.00;3.50;;;;;;;;;;4138290;34;20102;-63
2021/05/03 10:30:59;;;;;;;9.80;3.60;;;;;;;;;;4150418;34;20123;-64
2021/05/03 10:33:43;;;;;;;13.45;4.43;;;;;;;;;;4133292;34;20190;-64
2021/05/03 10:36:10;;;;;;;4.07;1.92;;;;;;;;;;4150349;34;20135;-64
2021/05/03 10:38:40;;;;;;;24.23;4.65;;;;;;;;;;4143104;34;20138;-66
2021/05/03 10:41:31;;;;;;;17.98;4.40;;;;;;;;;;4136799;34;20119;-64
2021/05/03 10:44:24;;;;;;;16.60;5.05;;;;;;;;;;4136304;34;20192;-66
2021/05/03 10:46:56;;;;;;;7.43;2.10;;;;;;;;;;4122572;34;20126;-68
2021/05/03 10:49:38;;;;;;;17.02;4.65;;;;;;;;;;4125789;34;20083;-65
2021/05/03 10:52:06;;;;;;;20.67;4.07;;;;;;;;;;4150050;34;20200;-63
2021/05/03 10:54:54;;;;;;;4.20;1.98;;;;;;;;;;4137373;34;20106;-64
2021/05/03 10:57:20;;;;;;;4.53;2.20;;;;;;;;;;4150127;34;20558;-64
2021/05/03 10:59:58;;;;;;;16.83;4.10;;;;;;;;;;4150309;34;20130;-67
2021/05/03 11:02:42;;;;;;;3.87;2.78;;;;;;;;;;4149599;34;20134;-66
2021/05/03 11:05:18;;;;;;;8.75;3.17;;;;;;;;;;4139348;34;20142;-66
2021/05/03 11:08:09;;;;;;;12.40;3.15;;;;;;;;;;4150041;34;20103;-65
2021/05/03 11:11:02;;;;;;;5.65;2.90;;;;;;;;;;4150086;34;20142;-65
2021/05/03 11:13:39;;;;;;;6.12;3.40;;;;;;;;;;4150135;34;20114;-64
2021/05/03 11:16:24;;;;;;;9.27;2.65;;;;;;;;;;4150114;34;20210;-67
2021/05/03 11:18:51;;;;;;;6.05;2.42;;;;;;;;;;4150090;34;20095;-66
2021/05/03 11:21:18;;;;;;;4.57;1.92;;;;;;;;;;4137548;34;20110;-68
2021/05/03 11:23:44;;;;;;;4.87;2.72;;;;;;;;;;4137338;34;20107;-66
2021/05/03 11:26:29;;;;;;;3.53;2.70;;;;;;;;;;4147730;34;20138;-63
2021/05/03 11:29:07;;;;;;;;;;;;;;;;;;4118596;34;20111;-67
2021/05/03 11:31:34;;;;;;;2.53;1.80;;;;;;;;;;4133860;34;19985;-62
2021/05/03 11:34:06;;;;;;;13.35;3.72;;;;;;;;;;4144808;34;20146;-65
2021/05/03 11:36:41;;;;;;;1.30;1.20;;;;;;;;;;4127871;34;20472;-65
2021/05/03 11:40:17;;;;;;;10.88;3.40;;;;;;;;;;4123997;34;20100;-70
2021/05/03 11:45:32;;;;;;;7.60;3.37;;;;;;;;;;4147941;34;20115;-64
2021/05/03 11:48:09;;;;;;;15.60;2.33;;;;;;;;;;4141028;34;20098;-69
2021/05/03 11:50:37;;;;;;;4.00;2.50;;;;;;;;;;4149027;34;20115;-65
2021/05/03 11:53:10;;;;;;;4.15;2.85;;;;;;;;;;4137216;34;20223;-64
2021/05/03 11:55:36;;;;;;;3.22;1.52;;;;;;;;;;4140201;34;20523;-63
2021/05/03 11:58:01;;;;;;;1.52;1.42;;;;;;;;;;4151608;34;20126;-64
2021/05/03 12:00:27;;;;;;;2.22;2.03;;;;;;;;;;4146828;34;20126;-63
2021/05/03 12:03:02;;;;;;;4.10;2.47;;;;;;;;;;4116796;34;20486;-65
2021/05/03 12:05:30;;;;;;;5.35;2.42;;;;;;;;;;4151792;34;20515;-66
2021/05/03 12:07:56;;;;;;;9.02;2.12;;;;;;;;;;4138930;34;20123;-64
2021/05/03 12:10:22;;;;;;;5.72;3.00;;;;;;;;;;4126878;34;20103;-65
2021/05/03 12:12:53;;;;;;;4.87;2.87;;;;;;;;;;4140051;34;20212;-68
2021/05/03 12:15:26;;;;;;;6.82;2.95;;;;;;;;;;4151640;34;20214;-65
2021/05/03 12:17:57;;;;;;;6.47;3.00;;;;;;;;;;4151544;34;20432;-68
2021/05/03 12:20:24;;;;;;;13.65;6.22;;;;;;;;;;4151698;34;20300;-65
2021/05/03 12:23:03;;;;;;;7.82;6.10;;;;;;;;;;4151290;34;20224;-67
2021/05/03 12:25:37;;;;;;;17.15;10.65;;;;;;;;;;4149848;34;20118;-65
2021/05/03 12:28:19;;;;;;;17.58;9.98;;;;;;;;;;4137415;34;20472;-63
2021/05/03 12:31:00;;;;;;;37.10;18.77;;;;;;;;;;4120840;34;20199;-62
2021/05/03 12:33:26;;;;;;;13.45;9.27;;;;;;;;;;4138686;34;20119;-67
2021/05/03 12:35:54;;;;;;;13.88;8.07;;;;;;;;;;4129212;34;20092;-65
2021/05/03 12:38:24;;;;;;;13.15;9.88;;;;;;;;;;4130954;34;20214;-68
2021/05/03 12:40:50;;;;;;;14.45;10.05;;;;;;;;;;4137835;34;20158;-63
2021/05/03 12:43:25;;;;;;;10.18;6.68;;;;;;;;;;4142648;34;20228;-64
2021/05/03 12:46:04;;;;;;;;;;;;;;;;;;4151886;34;20095;-67
2021/05/03 12:54:02;;;;;;;23.85;10.55;;;;;;;;;;4149603;34;20119;-70
2021/05/03 12:56:43;;;;;;;15.45;6.70;;;;;;;;;;4139603;34;20127;-65
2021/05/03 12:59:21;;;;;;;11.82;5.97;;;;;;;;;;4130262;34;20542;-63
2021/05/03 13:02:06;;;;;;;12.60;5.78;;;;;;;;;;4137560;34;20108;-65
2021/05/03 13:05:00;;;;;;;;;;;;;;;;;;4140711;34;20185;-64
2021/05/03 13:10:37;;;;;;;6.32;5.47;;;;;;;;;;4151152;34;20107;-64
2021/05/03 13:30:00;;;;;;;12.27;5.53;;;;;;;;;;4149248;34;20744;-64
2021/05/03 13:32:28;;;;;;;17.58;8.55;;;;;;;;;;4138087;34;20119;-66
2021/05/03 13:35:02;;;;;;;24.30;6.60;;;;;;;;;;4141956;34;20114;-64
2021/05/03 13:37:31;;;;;;;12.88;6.37;;;;;;;;;;4137304;34;20135;-65
2021/05/03 13:39:57;;;;;;;19.40;8.77;;;;;;;;;;4135814;34;20200;-67
2021/05/03 13:42:23;;;;;;;4.70;3.47;;;;;;;;;;4137299;34;20515;-65
2021/05/03 13:44:49;;;;;;;3.62;2.83;;;;;;;;;;4145057;34;20127;-67
2021/05/03 13:47:15;;;;;;;6.43;3.22;;;;;;;;;;4125263;34;20107;-63
2021/05/03 13:49:41;;;;;;;7.65;4.03;;;;;;;;;;4149795;34;20196;-64
2021/05/03 13:52:08;;;;;;;4.57;3.53;;;;;;;;;;4149276;34;20103;-63
2021/05/03 13:54:34;;;;;;;7.55;4.35;;;;;;;;;;4149800;34;20111;-61
2021/05/03 13:57:03;;;;;;;12.43;5.35;;;;;;;;;;4138375;34;20479;-61
2021/05/03 13:59:47;;;;;;;5.50;4.25;;;;;;;;;;4150940;34;20119;-61
2021/05/03 14:02:46;;;;;;;12.15;3.87;;;;;;;;;;4148258;34;20467;-63
2021/05/03 14:05:13;;;;;;;4.07;2.83;;;;;;;;;;4138737;34;20115;-62
2021/05/03 14:07:39;;;;;;;6.72;4.18;;;;;;;;;;4150283;34;20300;-66
2021/05/03 14:10:05;;;;;;;8.65;3.30;;;;;;;;;;4146368;34;20215;-62
2021/05/03 14:12:31;;;;;;;5.97;3.83;;;;;;;;;;4137153;34;20216;-62
2021/05/03 14:14:58;;;;;;;9.93;4.93;;;;;;;;;;4150665;34;20578;-63
2021/05/03 14:17:24;;;;;;;3.45;3.12;;;;;;;;;;4138137;34;20122;-62
2021/05/03 14:20:04;;;;;;;5.07;3.25;;;;;;;;;;4139160;34;20526;-63
2021/05/03 14:22:30;;;;;;;6.70;3.50;;;;;;;;;;4137415;34;20119;-65
2021/05/03 14:24:56;;;;;;;7.47;3.67;;;;;;;;;;4150813;34;20111;-63
2021/05/03 14:27:22;;;;;;;13.70;3.22;;;;;;;;;;4150198;34;20130;-65
2021/05/03 14:29:53;;;;;;;4.68;3.37;;;;;;;;;;4150594;34;20456;-62
2021/05/03 14:32:34;;;;;;;7.62;2.37;;;;;;;;;;4150438;34;20531;-67
2021/05/03 14:35:09;;;;;;;5.70;3.80;;;;;;;;;;4138575;34;20111;-63
2021/05/03 14:37:35;;;;;;;2.87;2.50;;;;;;;;;;4141657;34;20118;-62
2021/05/03 14:40:01;;;;;;;5.18;2.90;;;;;;;;;;4150591;34;20129;-66
2021/05/03 14:42:31;;;;;;;2.90;2.15;;;;;;;;;;4149941;34;20130;-63
2021/05/03 14:44:59;;;;;;;4.68;3.12;;;;;;;;;;4150638;34;20210;-62
2021/05/03 14:47:38;;;;;;;4.25;2.67;;;;;;;;;;4150042;34;20415;-62
2021/05/03 14:50:16;;;;;;;5.53;2.60;;;;;;;;;;4136842;34;20182;-62
2021/05/03 14:53:00;;;;;;;12.77;2.65;;;;;;;;;;4143171;34;20112;-63
2021/05/03 14:55:26;;;;;;;10.00;4.05;;;;;;;;;;4148993;34;20127;-64
2021/05/03 14:57:53;;;;;;;15.32;4.85;;;;;;;;;;4137440;34;20541;-62
2021/05/03 15:00:20;;;;;;;9.77;2.87;;;;;;;;;;4137913;34;20134;-64
2021/05/03 15:02:46;;;;;;;7.07;2.92;;;;;;;;;;4149714;34;20115;-64
2021/05/03 15:05:12;;;;;;;5.50;2.90;;;;;;;;;;4150280;34;20537;-64
2021/05/03 15:07:39;;;;;;;9.05;4.45;;;;;;;;;;4150170;34;20111;-64
2021/05/03 15:10:07;;;;;;;11.70;4.37;;;;;;;;;;4150081;34;20596;-64
2021/05/03 15:12:37;;;;;;;6.30;3.42;;;;;;;;;;4149734;34;20094;-64
2021/05/03 15:15:19;;;;;;;11.63;4.37;;;;;;;;;;4148324;34;20130;-64
2021/05/03 15:23:14;;;;;;;3.45;2.05;;;;;;;;;;4149556;34;20463;-64
2021/05/03 15:25:42;;;;;;;2.83;2.22;;;;;;;;;;4148435;34;20138;-62
2021/05/03 15:31:00;;;;;;;4.85;2.83;;;;;;;;;;4138035;34;20152;-65
2021/05/03 15:33:36;;;;;;;5.93;2.42;;;;;;;;;;4149738;34;20127;-63
2021/05/03 15:36:06;;;;;;;;;;;;;;;;;;4145203;34;20198;-65
2021/05/03 15:38:35;;;;;;;11.52;3.12;;;;;;;;;;4149910;34;20319;-61
2021/05/03 15:41:01;;;;;;;1.50;1.40;;;;;;;;;;4149533;34;20120;-61
2021/05/03 15:43:30;;;;;;;3.35;2.78;;;;;;;;;;4149783;34;20119;-62
2021/05/03 15:45:59;;;;;;;6.87;3.10;;;;;;;;;;4149965;34;20111;-63
2021/05/03 15:48:25;;;;;;;6.15;3.10;;;;;;;;;;4149331;34;20088;-64
2021/05/03 15:51:20;;;;;;;5.95;3.25;;;;;;;;;;4135816;34;20579;-62
2021/05/03 15:53:48;;;;;;;5.22;3.25;;;;;;;;;;4144083;34;20182;-66
2021/05/03 15:56:17;;;;;;;3.70;2.72;;;;;;;;;;4149696;34;20122;-60
2021/05/03 15:58:50;;;;;;;4.72;3.15;;;;;;;;;;4136161;34;20561;-64
2021/05/03 16:01:21;;;;;;;5.62;2.80;;;;;;;;;;4130187;34;20671;-61
2021/05/03 16:03:50;;;;;;;5.90;3.78;;;;;;;;;;4143239;34;20127;-67
2021/05/03 16:06:18;;;;;;;8.45;3.42;;;;;;;;;;4140768;34;20228;-64
2021/05/03 16:08:50;;;;;;;3.72;2.83;;;;;;;;;;4137070;34;20171;-61
2021/05/03 16:11:24;;;;;;;6.72;2.62;;;;;;;;;;4140173;34;20492;-65
2021/05/03 16:13:54;;;;;;;4.15;2.58;;;;;;;;;;4135840;34;20219;-64
2021/05/03 16:16:27;;;;;;;4.60;3.10;;;;;;;;;;4138277;34;20544;-64